Houmet Essouk, Tunisia
Current Conditions -  °F | °C
As of 1:30 PM on Thursday 30 Oct 2014 (Local Time) from DTTJ Reporting Station
Few Clouds Few Clouds  
Wind Chill: 77°   Ceiling: Unl
Heat Index: 79°   Visibility: 5mi
Dew Point: 59°   Wind: 16mph
Humidity: 54%   Direction: 40°NE
Pressure: 30.06"   Gusts: NA
Location:  33.87°N, 10.86°E
Report Text: DTTJ 301230Z 04014KT 010V070 8000 FEW020TCU 25/15 Q1018 NOSIG
Loading
Personal Weather Stations






























Interactive Weather Map
Tropical Storm Tracking
New forecast layout! Learn more

10-Day Weather Forecast

Advertisements
Track Severe Weather on mobile